sensor_id;sensor_type;location;lat;lon;timestamp;P1;durP1;ratioP1;P2;durP2;ratioP2
22894;SDS011;11614;52.494;6.976;2022-11-20T00:01:09;42.87;;;18.93;;
22894;SDS011;11614;52.494;6.976;2022-11-20T00:03:36;45.80;;;17.67;;
22894;SDS011;11614;52.494;6.976;2022-11-20T00:06:02;40.97;;;18.67;;
22894;SDS011;11614;52.494;6.976;2022-11-20T00:08:33;38.80;;;16.70;;
22894;SDS011;11614;52.494;6.976;2022-11-20T00:11:08;41.03;;;16.70;;
22894;SDS011;11614;52.494;6.976;2022-11-20T00:13:39;40.53;;;17.70;;
22894;SDS011;11614;52.494;6.976;2022-11-20T00:16:06;35.60;;;16.77;;
22894;SDS011;11614;52.494;6.976;2022-11-20T00:18:34;39.93;;;17.63;;
22894;SDS011;11614;52.494;6.976;2022-11-20T00:21:04;33.67;;;16.17;;
22894;SDS011;11614;52.494;6.976;2022-11-20T00:23:31;38.97;;;17.43;;
22894;SDS011;11614;52.494;6.976;2022-11-20T00:25:57;38.47;;;16.63;;
22894;SDS011;11614;52.494;6.976;2022-11-20T00:28:29;35.90;;;15.77;;
22894;SDS011;11614;52.494;6.976;2022-11-20T00:31:04;33.87;;;15.90;;
22894;SDS011;11614;52.494;6.976;2022-11-20T00:33:30;36.57;;;16.43;;
22894;SDS011;11614;52.494;6.976;2022-11-20T00:36:00;37.83;;;16.53;;
22894;SDS011;11614;52.494;6.976;2022-11-20T00:38:30;39.97;;;16.47;;
22894;SDS011;11614;52.494;6.976;2022-11-20T00:40:59;40.60;;;16.77;;
22894;SDS011;11614;52.494;6.976;2022-11-20T00:43:26;37.67;;;16.50;;
22894;SDS011;11614;52.494;6.976;2022-11-20T00:45:59;34.67;;;15.97;;
22894;SDS011;11614;52.494;6.976;2022-11-20T00:48:25;42.77;;;16.83;;
22894;SDS011;11614;52.494;6.976;2022-11-20T00:50:52;34.10;;;15.83;;
22894;SDS011;11614;52.494;6.976;2022-11-20T00:53:18;43.53;;;17.80;;
22894;SDS011;11614;52.494;6.976;2022-11-20T00:55:52;44.93;;;18.17;;
22894;SDS011;11614;52.494;6.976;2022-11-20T00:58:19;35.87;;;15.73;;
22894;SDS011;11614;52.494;6.976;2022-11-20T01:00:45;37.57;;;17.53;;
22894;SDS011;11614;52.494;6.976;2022-11-20T01:03:10;38.57;;;17.30;;
22894;SDS011;11614;52.494;6.976;2022-11-20T01:05:36;40.37;;;18.03;;
22894;SDS011;11614;52.494;6.976;2022-11-20T01:08:02;38.50;;;18.03;;
22894;SDS011;11614;52.494;6.976;2022-11-20T01:10:28;39.77;;;17.33;;
22894;SDS011;11614;52.494;6.976;2022-11-20T01:12:54;42.70;;;18.10;;
22894;SDS011;11614;52.494;6.976;2022-11-20T01:15:38;42.80;;;18.13;;
22894;SDS011;11614;52.494;6.976;2022-11-20T01:18:03;42.47;;;17.87;;
22894;SDS011;11614;52.494;6.976;2022-11-20T01:20:30;39.97;;;18.53;;
22894;SDS011;11614;52.494;6.976;2022-11-20T01:23:00;40.97;;;18.73;;
22894;SDS011;11614;52.494;6.976;2022-11-20T01:25:26;45.57;;;18.73;;
22894;SDS011;11614;52.494;6.976;2022-11-20T01:27:52;38.97;;;17.90;;
22894;SDS011;11614;52.494;6.976;2022-11-20T01:30:18;40.20;;;16.87;;
22894;SDS011;11614;52.494;6.976;2022-11-20T01:32:43;40.27;;;16.40;;
22894;SDS011;11614;52.494;6.976;2022-11-20T01:35:09;36.23;;;16.53;;
22894;SDS011;11614;52.494;6.976;2022-11-20T01:37:35;42.33;;;18.43;;
22894;SDS011;11614;52.494;6.976;2022-11-20T01:40:01;40.23;;;18.80;;
22894;SDS011;11614;52.494;6.976;2022-11-20T01:42:27;43.03;;;17.77;;
22894;SDS011;11614;52.494;6.976;2022-11-20T01:48:15;41.80;;;18.40;;
22894;SDS011;11614;52.494;6.976;2022-11-20T01:50:41;42.67;;;19.53;;
22894;SDS011;11614;52.494;6.976;2022-11-20T01:53:08;44.47;;;18.50;;
22894;SDS011;11614;52.494;6.976;2022-11-20T01:55:42;38.33;;;17.90;;
22894;SDS011;11614;52.494;6.976;2022-11-20T01:58:11;39.77;;;17.10;;
22894;SDS011;11614;52.494;6.976;2022-11-20T02:00:38;37.07;;;17.00;;
22894;SDS011;11614;52.494;6.976;2022-11-20T02:03:12;35.50;;;15.63;;
22894;SDS011;11614;52.494;6.976;2022-11-20T02:05:49;37.10;;;17.17;;
22894;SDS011;11614;52.494;6.976;2022-11-20T02:08:28;42.57;;;17.53;;
22894;SDS011;11614;52.494;6.976;2022-11-20T02:10:55;39.70;;;17.83;;
22894;SDS011;11614;52.494;6.976;2022-11-20T02:13:21;35.07;;;16.80;;
22894;SDS011;11614;52.494;6.976;2022-11-20T02:16:07;42.87;;;17.03;;
22894;SDS011;11614;52.494;6.976;2022-11-20T02:18:54;40.67;;;18.53;;
22894;SDS011;11614;52.494;6.976;2022-11-20T02:21:27;41.47;;;16.70;;
22894;SDS011;11614;52.494;6.976;2022-11-20T02:24:13;39.27;;;18.47;;
22894;SDS011;11614;52.494;6.976;2022-11-20T02:26:49;43.20;;;18.97;;
22894;SDS011;11614;52.494;6.976;2022-11-20T02:32:26;43.50;;;18.43;;
22894;SDS011;11614;52.494;6.976;2022-11-20T02:35:09;42.20;;;17.50;;
22894;SDS011;11614;52.494;6.976;2022-11-20T02:37:57;41.47;;;17.57;;
22894;SDS011;11614;52.494;6.976;2022-11-20T02:40:25;44.73;;;19.37;;
22894;SDS011;11614;52.494;6.976;2022-11-20T02:42:51;46.33;;;19.83;;
22894;SDS011;11614;52.494;6.976;2022-11-20T02:45:18;38.07;;;16.83;;
22894;SDS011;11614;52.494;6.976;2022-11-20T02:47:43;47.27;;;18.73;;
22894;SDS011;11614;52.494;6.976;2022-11-20T02:50:09;40.47;;;16.73;;
22894;SDS011;11614;52.494;6.976;2022-11-20T02:52:35;37.33;;;19.00;;
22894;SDS011;11614;52.494;6.976;2022-11-20T02:55:01;35.87;;;17.37;;
22894;SDS011;11614;52.494;6.976;2022-11-20T02:57:27;40.17;;;18.20;;
22894;SDS011;11614;52.494;6.976;2022-11-20T02:59:53;35.47;;;16.50;;
22894;SDS011;11614;52.494;6.976;2022-11-20T03:02:19;41.23;;;16.93;;
22894;SDS011;11614;52.494;6.976;2022-11-20T03:04:45;35.20;;;16.67;;
22894;SDS011;11614;52.494;6.976;2022-11-20T03:07:11;38.90;;;17.53;;
22894;SDS011;11614;52.494;6.976;2022-11-20T03:09:36;37.00;;;17.77;;
22894;SDS011;11614;52.494;6.976;2022-11-20T03:12:02;34.43;;;15.70;;
22894;SDS011;11614;52.494;6.976;2022-11-20T03:14:28;37.33;;;17.10;;
22894;SDS011;11614;52.494;6.976;2022-11-20T03:16:54;47.50;;;18.13;;
22894;SDS011;11614;52.494;6.976;2022-11-20T03:19:20;39.67;;;16.70;;
22894;SDS011;11614;52.494;6.976;2022-11-20T03:21:46;38.13;;;17.17;;
22894;SDS011;11614;52.494;6.976;2022-11-20T03:24:12;32.03;;;14.57;;
22894;SDS011;11614;52.494;6.976;2022-11-20T03:26:38;37.40;;;16.33;;
22894;SDS011;11614;52.494;6.976;2022-11-20T03:29:04;33.90;;;15.97;;
22894;SDS011;11614;52.494;6.976;2022-11-20T03:31:34;32.07;;;16.33;;
22894;SDS011;11614;52.494;6.976;2022-11-20T03:34:02;37.67;;;15.47;;
22894;SDS011;11614;52.494;6.976;2022-11-20T03:36:28;36.87;;;16.80;;
22894;SDS011;11614;52.494;6.976;2022-11-20T03:38:55;36.13;;;16.07;;
22894;SDS011;11614;52.494;6.976;2022-11-20T03:41:28;35.47;;;16.00;;
22894;SDS011;11614;52.494;6.976;2022-11-20T03:43:56;37.77;;;16.47;;
22894;SDS011;11614;52.494;6.976;2022-11-20T03:46:23;34.67;;;16.83;;
22894;SDS011;11614;52.494;6.976;2022-11-20T03:48:49;35.80;;;16.97;;
22894;SDS011;11614;52.494;6.976;2022-11-20T03:51:36;37.27;;;15.97;;
22894;SDS011;11614;52.494;6.976;2022-11-20T03:54:02;35.37;;;16.17;;
22894;SDS011;11614;52.494;6.976;2022-11-20T03:56:31;35.67;;;15.37;;
22894;SDS011;11614;52.494;6.976;2022-11-20T03:58:59;35.23;;;15.60;;
22894;SDS011;11614;52.494;6.976;2022-11-20T04:01:26;35.23;;;14.70;;
22894;SDS011;11614;52.494;6.976;2022-11-20T04:03:54;36.53;;;15.97;;
22894;SDS011;11614;52.494;6.976;2022-11-20T04:06:22;31.67;;;13.30;;
22894;SDS011;11614;52.494;6.976;2022-11-20T04:08:49;25.90;;;11.60;;
22894;SDS011;11614;52.494;6.976;2022-11-20T04:11:19;32.60;;;14.13;;
22894;SDS011;11614;52.494;6.976;2022-11-20T04:13:53;36.10;;;14.93;;
22894;SDS011;11614;52.494;6.976;2022-11-20T04:16:20;35.97;;;16.13;;
22894;SDS011;11614;52.494;6.976;2022-11-20T04:18:51;30.90;;;13.33;;
22894;SDS011;11614;52.494;6.976;2022-11-20T04:21:20;36.40;;;14.47;;
22894;SDS011;11614;52.494;6.976;2022-11-20T04:23:46;35.60;;;15.43;;
22894;SDS011;11614;52.494;6.976;2022-11-20T04:26:12;27.73;;;14.13;;
22894;SDS011;11614;52.494;6.976;2022-11-20T04:28:38;29.53;;;13.33;;
22894;SDS011;11614;52.494;6.976;2022-11-20T04:31:05;26.00;;;11.93;;
22894;SDS011;11614;52.494;6.976;2022-11-20T04:33:42;25.70;;;11.43;;
22894;SDS011;11614;52.494;6.976;2022-11-20T04:36:17;30.57;;;11.67;;
22894;SDS011;11614;52.494;6.976;2022-11-20T04:38:45;30.03;;;12.90;;
22894;SDS011;11614;52.494;6.976;2022-11-20T04:41:17;31.07;;;12.90;;
22894;SDS011;11614;52.494;6.976;2022-11-20T04:43:48;41.73;;;17.73;;
22894;SDS011;11614;52.494;6.976;2022-11-20T04:46:15;33.73;;;13.60;;
22894;SDS011;11614;52.494;6.976;2022-11-20T04:48:41;30.20;;;13.13;;
22894;SDS011;11614;52.494;6.976;2022-11-20T04:51:07;20.23;;;9.57;;
22894;SDS011;11614;52.494;6.976;2022-11-20T04:53:33;27.77;;;13.03;;
22894;SDS011;11614;52.494;6.976;2022-11-20T04:55:59;29.97;;;14.07;;
22894;SDS011;11614;52.494;6.976;2022-11-20T04:58:26;33.70;;;13.87;;
22894;SDS011;11614;52.494;6.976;2022-11-20T05:00:52;32.17;;;14.40;;
22894;SDS011;11614;52.494;6.976;2022-11-20T05:03:18;30.70;;;14.53;;
22894;SDS011;11614;52.494;6.976;2022-11-20T05:05:44;30.30;;;14.13;;
22894;SDS011;11614;52.494;6.976;2022-11-20T05:08:10;28.33;;;13.00;;
22894;SDS011;11614;52.494;6.976;2022-11-20T05:10:36;34.67;;;12.87;;
22894;SDS011;11614;52.494;6.976;2022-11-20T05:13:01;24.00;;;10.87;;
22894;SDS011;11614;52.494;6.976;2022-11-20T05:15:27;25.67;;;11.87;;
22894;SDS011;11614;52.494;6.976;2022-11-20T05:17:53;24.17;;;10.63;;
22894;SDS011;11614;52.494;6.976;2022-11-20T05:20:19;22.70;;;9.63;;
22894;SDS011;11614;52.494;6.976;2022-11-20T05:22:45;28.30;;;12.03;;
22894;SDS011;11614;52.494;6.976;2022-11-20T05:25:11;32.83;;;13.17;;
22894;SDS011;11614;52.494;6.976;2022-11-20T05:27:37;24.43;;;11.03;;
22894;SDS011;11614;52.494;6.976;2022-11-20T05:30:03;28.10;;;12.63;;
22894;SDS011;11614;52.494;6.976;2022-11-20T05:32:30;23.53;;;10.17;;
22894;SDS011;11614;52.494;6.976;2022-11-20T05:34:56;27.40;;;12.40;;
22894;SDS011;11614;52.494;6.976;2022-11-20T05:37:21;27.07;;;11.50;;
22894;SDS011;11614;52.494;6.976;2022-11-20T05:39:47;28.47;;;13.23;;
22894;SDS011;11614;52.494;6.976;2022-11-20T05:42:13;26.50;;;11.27;;
22894;SDS011;11614;52.494;6.976;2022-11-20T05:44:57;25.40;;;12.07;;
22894;SDS011;11614;52.494;6.976;2022-11-20T05:47:27;36.53;;;16.47;;
22894;SDS011;11614;52.494;6.976;2022-11-20T05:49:53;28.83;;;12.77;;
22894;SDS011;11614;52.494;6.976;2022-11-20T05:52:19;26.70;;;11.50;;
22894;SDS011;11614;52.494;6.976;2022-11-20T05:54:45;27.83;;;12.23;;
22894;SDS011;11614;52.494;6.976;2022-11-20T05:57:11;32.73;;;13.27;;
22894;SDS011;11614;52.494;6.976;2022-11-20T05:59:37;29.00;;;12.30;;
22894;SDS011;11614;52.494;6.976;2022-11-20T06:02:03;25.67;;;12.07;;
22894;SDS011;11614;52.494;6.976;2022-11-20T06:04:29;36.43;;;13.63;;
22894;SDS011;11614;52.494;6.976;2022-11-20T06:06:55;28.13;;;13.20;;
22894;SDS011;11614;52.494;6.976;2022-11-20T06:09:20;30.33;;;12.37;;
22894;SDS011;11614;52.494;6.976;2022-11-20T06:11:46;30.47;;;12.63;;
22894;SDS011;11614;52.494;6.976;2022-11-20T06:14:12;27.77;;;11.83;;
22894;SDS011;11614;52.494;6.976;2022-11-20T06:16:38;22.70;;;9.60;;
22894;SDS011;11614;52.494;6.976;2022-11-20T06:19:03;15.93;;;7.07;;
22894;SDS011;11614;52.494;6.976;2022-11-20T06:21:29;22.73;;;8.40;;
22894;SDS011;11614;52.494;6.976;2022-11-20T06:23:55;22.63;;;10.00;;
22894;SDS011;11614;52.494;6.976;2022-11-20T06:26:22;22.50;;;10.30;;
22894;SDS011;11614;52.494;6.976;2022-11-20T06:28:49;29.73;;;12.00;;
22894;SDS011;11614;52.494;6.976;2022-11-20T06:31:16;19.50;;;9.23;;
22894;SDS011;11614;52.494;6.976;2022-11-20T06:33:44;21.83;;;9.17;;
22894;SDS011;11614;52.494;6.976;2022-11-20T06:36:11;20.47;;;9.13;;
22894;SDS011;11614;52.494;6.976;2022-11-20T06:38:38;21.93;;;10.17;;
22894;SDS011;11614;52.494;6.976;2022-11-20T06:41:05;24.30;;;10.23;;
22894;SDS011;11614;52.494;6.976;2022-11-20T06:43:31;26.07;;;9.17;;
22894;SDS011;11614;52.494;6.976;2022-11-20T06:45:58;22.87;;;9.73;;
22894;SDS011;11614;52.494;6.976;2022-11-20T06:48:24;22.87;;;9.43;;
22894;SDS011;11614;52.494;6.976;2022-11-20T06:50:52;20.67;;;9.80;;
22894;SDS011;11614;52.494;6.976;2022-11-20T06:53:17;26.40;;;11.20;;
22894;SDS011;11614;52.494;6.976;2022-11-20T06:55:44;24.20;;;10.47;;
22894;SDS011;11614;52.494;6.976;2022-11-20T06:58:11;29.87;;;13.80;;
22894;SDS011;11614;52.494;6.976;2022-11-20T07:00:37;25.37;;;10.00;;
22894;SDS011;11614;52.494;6.976;2022-11-20T07:03:03;25.70;;;11.23;;
22894;SDS011;11614;52.494;6.976;2022-11-20T07:05:29;28.37;;;12.67;;
22894;SDS011;11614;52.494;6.976;2022-11-20T07:07:58;32.87;;;15.80;;
22894;SDS011;11614;52.494;6.976;2022-11-20T07:10:24;52.93;;;22.43;;
22894;SDS011;11614;52.494;6.976;2022-11-20T07:12:51;31.83;;;15.07;;
22894;SDS011;11614;52.494;6.976;2022-11-20T07:15:17;29.50;;;12.73;;
22894;SDS011;11614;52.494;6.976;2022-11-20T07:17:43;32.90;;;14.90;;
22894;SDS011;11614;52.494;6.976;2022-11-20T07:20:09;31.67;;;12.37;;
22894;SDS011;11614;52.494;6.976;2022-11-20T07:22:35;28.40;;;11.43;;
22894;SDS011;11614;52.494;6.976;2022-11-20T07:25:01;34.70;;;17.33;;
22894;SDS011;11614;52.494;6.976;2022-11-20T07:27:27;39.93;;;17.17;;
22894;SDS011;11614;52.494;6.976;2022-11-20T07:29:53;32.80;;;13.83;;
22894;SDS011;11614;52.494;6.976;2022-11-20T07:32:19;31.57;;;15.40;;
22894;SDS011;11614;52.494;6.976;2022-11-20T07:34:44;31.73;;;14.03;;
22894;SDS011;11614;52.494;6.976;2022-11-20T07:37:11;27.87;;;13.20;;
22894;SDS011;11614;52.494;6.976;2022-11-20T07:39:37;32.27;;;16.83;;
22894;SDS011;11614;52.494;6.976;2022-11-20T07:42:03;28.43;;;15.00;;
22894;SDS011;11614;52.494;6.976;2022-11-20T07:44:29;23.37;;;12.50;;
22894;SDS011;11614;52.494;6.976;2022-11-20T07:46:54;22.50;;;10.80;;
22894;SDS011;11614;52.494;6.976;2022-11-20T07:49:20;23.03;;;10.97;;
22894;SDS011;11614;52.494;6.976;2022-11-20T07:51:45;25.00;;;11.90;;
22894;SDS011;11614;52.494;6.976;2022-11-20T07:54:12;38.73;;;16.93;;
22894;SDS011;11614;52.494;6.976;2022-11-20T07:56:37;24.73;;;10.70;;
22894;SDS011;11614;52.494;6.976;2022-11-20T07:59:03;23.57;;;10.47;;
22894;SDS011;11614;52.494;6.976;2022-11-20T08:01:29;28.97;;;12.90;;
22894;SDS011;11614;52.494;6.976;2022-11-20T08:03:55;27.67;;;12.60;;
22894;SDS011;11614;52.494;6.976;2022-11-20T08:06:21;20.50;;;9.07;;
22894;SDS011;11614;52.494;6.976;2022-11-20T08:08:47;23.90;;;11.67;;
22894;SDS011;11614;52.494;6.976;2022-11-20T08:11:12;16.70;;;7.33;;
22894;SDS011;11614;52.494;6.976;2022-11-20T08:13:57;20.60;;;9.37;;
22894;SDS011;11614;52.494;6.976;2022-11-20T08:16:42;22.63;;;9.90;;
22894;SDS011;11614;52.494;6.976;2022-11-20T08:19:09;23.80;;;10.60;;
22894;SDS011;11614;52.494;6.976;2022-11-20T08:21:35;21.13;;;10.00;;
22894;SDS011;11614;52.494;6.976;2022-11-20T08:24:01;24.03;;;11.43;;
22894;SDS011;11614;52.494;6.976;2022-11-20T08:26:27;15.07;;;6.70;;
22894;SDS011;11614;52.494;6.976;2022-11-20T08:28:53;23.70;;;9.50;;
22894;SDS011;11614;52.494;6.976;2022-11-20T08:31:19;23.57;;;10.27;;
22894;SDS011;11614;52.494;6.976;2022-11-20T08:33:46;15.37;;;7.07;;
22894;SDS011;11614;52.494;6.976;2022-11-20T08:36:12;19.53;;;10.03;;
22894;SDS011;11614;52.494;6.976;2022-11-20T08:38:38;23.83;;;11.30;;
22894;SDS011;11614;52.494;6.976;2022-11-20T08:41:05;18.00;;;9.73;;
22894;SDS011;11614;52.494;6.976;2022-11-20T08:43:50;22.30;;;9.83;;
22894;SDS011;11614;52.494;6.976;2022-11-20T08:46:16;27.40;;;12.53;;
22894;SDS011;11614;52.494;6.976;2022-11-20T08:48:43;22.27;;;9.73;;
22894;SDS011;11614;52.494;6.976;2022-11-20T08:51:09;22.60;;;9.87;;
22894;SDS011;11614;52.494;6.976;2022-11-20T08:53:35;21.23;;;9.27;;
22894;SDS011;11614;52.494;6.976;2022-11-20T08:56:01;21.50;;;9.93;;
22894;SDS011;11614;52.494;6.976;2022-11-20T08:58:27;21.20;;;9.83;;
22894;SDS011;11614;52.494;6.976;2022-11-20T09:00:53;18.80;;;9.87;;
22894;SDS011;11614;52.494;6.976;2022-11-20T09:03:19;53.03;;;26.23;;
22894;SDS011;11614;52.494;6.976;2022-11-20T09:05:45;28.20;;;14.17;;
22894;SDS011;11614;52.494;6.976;2022-11-20T09:08:11;21.03;;;10.33;;
22894;SDS011;11614;52.494;6.976;2022-11-20T09:10:37;26.43;;;12.43;;
22894;SDS011;11614;52.494;6.976;2022-11-20T09:13:06;32.67;;;18.00;;
22894;SDS011;11614;52.494;6.976;2022-11-20T09:15:32;18.13;;;10.50;;
22894;SDS011;11614;52.494;6.976;2022-11-20T09:17:59;19.23;;;10.70;;
22894;SDS011;11614;52.494;6.976;2022-11-20T09:20:26;18.33;;;9.93;;
22894;SDS011;11614;52.494;6.976;2022-11-20T09:22:54;15.90;;;7.53;;
22894;SDS011;11614;52.494;6.976;2022-11-20T09:25:19;21.97;;;11.23;;
22894;SDS011;11614;52.494;6.976;2022-11-20T09:27:45;21.73;;;10.10;;
22894;SDS011;11614;52.494;6.976;2022-11-20T09:30:12;15.03;;;10.30;;
22894;SDS011;11614;52.494;6.976;2022-11-20T09:32:39;13.07;;;7.50;;
22894;SDS011;11614;52.494;6.976;2022-11-20T09:35:05;16.00;;;7.53;;
22894;SDS011;11614;52.494;6.976;2022-11-20T09:37:31;19.67;;;9.83;;
22894;SDS011;11614;52.494;6.976;2022-11-20T09:39:57;18.87;;;10.60;;
22894;SDS011;11614;52.494;6.976;2022-11-20T09:42:27;18.03;;;10.33;;
22894;SDS011;11614;52.494;6.976;2022-11-20T09:45:01;20.27;;;9.37;;
22894;SDS011;11614;52.494;6.976;2022-11-20T09:47:33;17.70;;;5.77;;
22894;SDS011;11614;52.494;6.976;2022-11-20T09:52:55;17.03;;;7.30;;
22894;SDS011;11614;52.494;6.976;2022-11-20T09:55:22;19.53;;;8.90;;
22894;SDS011;11614;52.494;6.976;2022-11-20T09:57:51;18.50;;;9.87;;
22894;SDS011;11614;52.494;6.976;2022-11-20T10:00:18;14.40;;;5.77;;
22894;SDS011;11614;52.494;6.976;2022-11-20T10:02:53;20.53;;;10.40;;
22894;SDS011;11614;52.494;6.976;2022-11-20T10:05:22;19.60;;;8.30;;
22894;SDS011;11614;52.494;6.976;2022-11-20T10:07:55;17.93;;;9.67;;
22894;SDS011;11614;52.494;6.976;2022-11-20T10:10:34;17.90;;;9.73;;
22894;SDS011;11614;52.494;6.976;2022-11-20T10:15:39;19.70;;;9.60;;
22894;SDS011;11614;52.494;6.976;2022-11-20T10:18:15;17.87;;;9.53;;
22894;SDS011;11614;52.494;6.976;2022-11-20T10:31:07;21.17;;;11.90;;
22894;SDS011;11614;52.494;6.976;2022-11-20T10:33:39;21.77;;;9.67;;
22894;SDS011;11614;52.494;6.976;2022-11-20T10:36:07;20.47;;;10.73;;
22894;SDS011;11614;52.494;6.976;2022-11-20T10:38:36;31.33;;;16.43;;
22894;SDS011;11614;52.494;6.976;2022-11-20T10:41:03;23.30;;;12.73;;
22894;SDS011;11614;52.494;6.976;2022-11-20T10:43:51;21.47;;;11.77;;
22894;SDS011;11614;52.494;6.976;2022-11-20T10:46:18;20.63;;;8.63;;
22894;SDS011;11614;52.494;6.976;2022-11-20T10:48:47;17.13;;;9.50;;
22894;SDS011;11614;52.494;6.976;2022-11-20T10:54:04;21.73;;;10.17;;
22894;SDS011;11614;52.494;6.976;2022-11-20T10:59:20;23.27;;;12.07;;
22894;SDS011;11614;52.494;6.976;2022-11-20T11:01:52;18.97;;;11.13;;
22894;SDS011;11614;52.494;6.976;2022-11-20T11:06:50;16.40;;;11.57;;
22894;SDS011;11614;52.494;6.976;2022-11-20T11:09:19;16.13;;;10.03;;
22894;SDS011;11614;52.494;6.976;2022-11-20T11:11:48;16.30;;;10.47;;
22894;SDS011;11614;52.494;6.976;2022-11-20T11:14:15;10.10;;;5.77;;
22894;SDS011;11614;52.494;6.976;2022-11-20T11:16:51;13.73;;;8.70;;
22894;SDS011;11614;52.494;6.976;2022-11-20T11:19:17;14.13;;;7.97;;
22894;SDS011;11614;52.494;6.976;2022-11-20T11:21:49;14.03;;;9.03;;
22894;SDS011;11614;52.494;6.976;2022-11-20T11:24:36;14.63;;;7.97;;
22894;SDS011;11614;52.494;6.976;2022-11-20T11:27:03;16.93;;;9.90;;
22894;SDS011;11614;52.494;6.976;2022-11-20T11:29:31;19.73;;;11.30;;
22894;SDS011;11614;52.494;6.976;2022-11-20T11:34:30;20.57;;;11.40;;
22894;SDS011;11614;52.494;6.976;2022-11-20T11:36:58;21.67;;;9.87;;
22894;SDS011;11614;52.494;6.976;2022-11-20T11:39:25;16.33;;;9.03;;
22894;SDS011;11614;52.494;6.976;2022-11-20T11:41:52;26.23;;;13.33;;
22894;SDS011;11614;52.494;6.976;2022-11-20T11:44:19;20.30;;;9.43;;
22894;SDS011;11614;52.494;6.976;2022-11-20T11:47:05;30.43;;;17.97;;
22894;SDS011;11614;52.494;6.976;2022-11-20T11:49:34;13.87;;;8.07;;
22894;SDS011;11614;52.494;6.976;2022-11-20T11:52:19;11.93;;;7.13;;
22894;SDS011;11614;52.494;6.976;2022-11-20T11:55:00;15.10;;;8.70;;
22894;SDS011;11614;52.494;6.976;2022-11-20T12:05:16;15.80;;;9.27;;
22894;SDS011;11614;52.494;6.976;2022-11-20T12:10:17;37.30;;;19.33;;
22894;SDS011;11614;52.494;6.976;2022-11-20T12:12:45;14.77;;;9.50;;
22894;SDS011;11614;52.494;6.976;2022-11-20T12:15:16;19.60;;;11.50;;
22894;SDS011;11614;52.494;6.976;2022-11-20T12:17:46;6.27;;;3.00;;
22894;SDS011;11614;52.494;6.976;2022-11-20T12:20:13;15.30;;;7.03;;
22894;SDS011;11614;52.494;6.976;2022-11-20T12:23:28;25.70;;;13.50;;
22894;SDS011;11614;52.494;6.976;2022-11-20T12:25:32;14.27;;;6.90;;
22894;SDS011;11614;52.494;6.976;2022-11-20T12:30:26;21.00;;;10.83;;
22894;SDS011;11614;52.494;6.976;2022-11-20T12:35:58;15.27;;;9.73;;
22894;SDS011;11614;52.494;6.976;2022-11-20T12:43:27;12.67;;;7.80;;
22894;SDS011;11614;52.494;6.976;2022-11-20T12:57:23;8.27;;;3.73;;
22894;SDS011;11614;52.494;6.976;2022-11-20T12:59:54;5.73;;;2.63;;
22894;SDS011;11614;52.494;6.976;2022-11-20T13:02:26;6.00;;;3.20;;
22894;SDS011;11614;52.494;6.976;2022-11-20T13:05:02;8.87;;;4.87;;
22894;SDS011;11614;52.494;6.976;2022-11-20T13:07:31;6.83;;;4.13;;
22894;SDS011;11614;52.494;6.976;2022-11-20T13:09:58;10.10;;;6.53;;
22894;SDS011;11614;52.494;6.976;2022-11-20T13:12:26;8.43;;;3.77;;
22894;SDS011;11614;52.494;6.976;2022-11-20T13:14:55;7.97;;;4.50;;
22894;SDS011;11614;52.494;6.976;2022-11-20T13:20:05;9.30;;;4.90;;
22894;SDS011;11614;52.494;6.976;2022-11-20T13:22:44;14.40;;;8.00;;
22894;SDS011;11614;52.494;6.976;2022-11-20T13:25:32;9.20;;;4.97;;
22894;SDS011;11614;52.494;6.976;2022-11-20T13:27:57;11.67;;;6.93;;
22894;SDS011;11614;52.494;6.976;2022-11-20T13:30:25;13.50;;;8.03;;
22894;SDS011;11614;52.494;6.976;2022-11-20T13:32:52;15.40;;;9.23;;
22894;SDS011;11614;52.494;6.976;2022-11-20T13:35:32;10.03;;;5.77;;
22894;SDS011;11614;52.494;6.976;2022-11-20T13:38:03;17.13;;;9.93;;
22894;SDS011;11614;52.494;6.976;2022-11-20T13:40:38;11.47;;;6.50;;
22894;SDS011;11614;52.494;6.976;2022-11-20T13:43:21;13.00;;;7.00;;
22894;SDS011;11614;52.494;6.976;2022-11-20T13:45:54;13.43;;;7.17;;
22894;SDS011;11614;52.494;6.976;2022-11-20T13:48:22;10.63;;;6.43;;
22894;SDS011;11614;52.494;6.976;2022-11-20T13:56:19;21.97;;;11.20;;
22894;SDS011;11614;52.494;6.976;2022-11-20T14:02:02;13.60;;;7.73;;
22894;SDS011;11614;52.494;6.976;2022-11-20T14:04:35;14.67;;;7.90;;
22894;SDS011;11614;52.494;6.976;2022-11-20T14:07:05;13.20;;;5.93;;
22894;SDS011;11614;52.494;6.976;2022-11-20T14:09:32;12.27;;;5.73;;
22894;SDS011;11614;52.494;6.976;2022-11-20T14:11:59;13.63;;;7.87;;
22894;SDS011;11614;52.494;6.976;2022-11-20T14:14:25;12.07;;;7.03;;
22894;SDS011;11614;52.494;6.976;2022-11-20T14:17:03;20.43;;;10.57;;
22894;SDS011;11614;52.494;6.976;2022-11-20T14:19:54;18.10;;;8.90;;
22894;SDS011;11614;52.494;6.976;2022-11-20T14:22:24;15.03;;;9.17;;
22894;SDS011;11614;52.494;6.976;2022-11-20T14:25:01;19.70;;;9.40;;
22894;SDS011;11614;52.494;6.976;2022-11-20T14:27:27;23.53;;;12.50;;
22894;SDS011;11614;52.494;6.976;2022-11-20T14:29:53;17.17;;;9.77;;
22894;SDS011;11614;52.494;6.976;2022-11-20T14:32:21;16.20;;;7.83;;
22894;SDS011;11614;52.494;6.976;2022-11-20T14:34:51;19.37;;;10.07;;
22894;SDS011;11614;52.494;6.976;2022-11-20T14:37:21;21.57;;;13.67;;
22894;SDS011;11614;52.494;6.976;2022-11-20T14:39:50;14.80;;;8.40;;
22894;SDS011;11614;52.494;6.976;2022-11-20T14:42:20;17.07;;;9.67;;
22894;SDS011;11614;52.494;6.976;2022-11-20T14:44:50;18.67;;;10.90;;
22894;SDS011;11614;52.494;6.976;2022-11-20T14:47:21;25.10;;;15.23;;
22894;SDS011;11614;52.494;6.976;2022-11-20T14:49:49;15.97;;;9.07;;
22894;SDS011;11614;52.494;6.976;2022-11-20T14:54:43;12.03;;;6.50;;
22894;SDS011;11614;52.494;6.976;2022-11-20T14:57:53;17.23;;;10.13;;
22894;SDS011;11614;52.494;6.976;2022-11-20T15:02:31;18.10;;;9.53;;
22894;SDS011;11614;52.494;6.976;2022-11-20T15:04:57;22.17;;;12.27;;
22894;SDS011;11614;52.494;6.976;2022-11-20T15:07:35;20.10;;;10.30;;
22894;SDS011;11614;52.494;6.976;2022-11-20T15:10:02;26.30;;;13.13;;
22894;SDS011;11614;52.494;6.976;2022-11-20T15:12:30;28.77;;;15.63;;
22894;SDS011;11614;52.494;6.976;2022-11-20T15:14:56;24.97;;;13.27;;
22894;SDS011;11614;52.494;6.976;2022-11-20T15:17:22;27.33;;;12.93;;
22894;SDS011;11614;52.494;6.976;2022-11-20T15:19:48;22.97;;;11.10;;
22894;SDS011;11614;52.494;6.976;2022-11-20T15:22:15;17.43;;;8.83;;
22894;SDS011;11614;52.494;6.976;2022-11-20T15:24:44;33.67;;;15.47;;
22894;SDS011;11614;52.494;6.976;2022-11-20T15:27:10;40.93;;;21.43;;
22894;SDS011;11614;52.494;6.976;2022-11-20T15:29:36;47.33;;;22.07;;
22894;SDS011;11614;52.494;6.976;2022-11-20T15:32:02;31.50;;;14.13;;
22894;SDS011;11614;52.494;6.976;2022-11-20T15:34:28;19.33;;;8.90;;
22894;SDS011;11614;52.494;6.976;2022-11-20T15:36:54;23.27;;;12.07;;
22894;SDS011;11614;52.494;6.976;2022-11-20T15:39:20;35.37;;;20.13;;
22894;SDS011;11614;52.494;6.976;2022-11-20T15:41:46;33.43;;;17.43;;
22894;SDS011;11614;52.494;6.976;2022-11-20T15:44:12;30.07;;;17.27;;
22894;SDS011;11614;52.494;6.976;2022-11-20T15:46:39;23.63;;;11.90;;
22894;SDS011;11614;52.494;6.976;2022-11-20T15:49:16;32.97;;;14.50;;
22894;SDS011;11614;52.494;6.976;2022-11-20T15:51:44;23.20;;;9.63;;
22894;SDS011;11614;52.494;6.976;2022-11-20T15:56:37;29.87;;;12.40;;
22894;SDS011;11614;52.494;6.976;2022-11-20T15:59:03;26.37;;;10.60;;